createdAt,value
2019-01-30T00:01:05.048Z,94752.44
2019-01-30T00:03:36.940Z,94750.73
2019-01-30T00:06:10.093Z,94749.52
2019-01-30T00:08:41.863Z,94739.27
2019-01-30T00:11:13.625Z,94735.69
2019-01-30T00:13:46.346Z,94731.88
2019-01-30T00:16:18.100Z,94736.16
2019-01-30T00:18:49.936Z,94732.66
2019-01-30T00:21:21.914Z,94731.25
2019-01-30T00:23:53.837Z,94728.08
2019-01-30T00:26:25.756Z,94728.14
2019-01-30T00:28:57.586Z,94716.73
2019-01-30T00:31:29.501Z,94716.39
2019-01-30T00:34:01.328Z,94707.38
2019-01-30T00:36:33.102Z,94701.55
2019-01-30T00:39:07.226Z,94698.41
2019-01-30T00:41:40.097Z,94692.06
2019-01-30T00:44:11.925Z,94687.30
2019-01-30T00:46:43.758Z,94683.52
2019-01-30T00:49:15.505Z,94679.56
2019-01-30T00:51:47.267Z,94672.17
2019-01-30T00:54:19.027Z,94668.59
2019-01-30T00:56:50.960Z,94663.00
2019-01-30T00:59:22.705Z,94663.23
2019-01-30T01:01:54.607Z,94652.23
2019-01-30T01:04:26.503Z,94655.84
2019-01-30T01:06:58.416Z,94653.99
2019-01-30T01:09:30.367Z,94647.23
2019-01-30T01:12:02.127Z,94646.77
2019-01-30T01:14:33.883Z,94642.68
2019-01-30T01:17:05.787Z,94637.66
2019-01-30T01:19:37.621Z,94632.72
2019-01-30T01:22:09.533Z,94634.01
2019-01-30T01:24:41.294Z,94639.76
2019-01-30T01:27:13.191Z,94637.78
2019-01-30T01:29:45.093Z,94636.72
2019-01-30T01:32:17.174Z,94640.58
2019-01-30T01:34:48.944Z,94631.03
2019-01-30T01:37:20.757Z,94628.36
2019-01-30T01:39:52.598Z,94623.08
2019-01-30T01:42:24.419Z,94624.05
2019-01-30T01:44:56.171Z,94623.08
2019-01-30T01:47:28.054Z,94622.01
2019-01-30T01:49:59.894Z,94620.72
2019-01-30T01:52:31.895Z,94611.08
2019-01-30T01:55:03.754Z,94605.55
2019-01-30T01:57:35.648Z,94595.55
2019-01-30T02:00:11.459Z,94594.61
2019-01-30T02:02:43.610Z,94586.95
2019-01-30T02:05:18.600Z,94585.86
2019-01-30T02:07:50.677Z,94575.38
2019-01-30T02:10:23.970Z,94572.33
2019-01-30T02:12:55.903Z,94568.38
2019-01-30T02:15:27.815Z,94570.81
2019-01-30T02:17:59.753Z,94566.13
2019-01-30T02:20:33.375Z,94557.13
2019-01-30T02:23:05.283Z,94556.39
2019-01-30T02:25:37.192Z,94544.86
2019-01-30T02:28:10.192Z,94545.13
2019-01-30T02:30:47.678Z,94544.23
2019-01-30T02:33:15.626Z,94537.39
2019-01-30T02:35:47.698Z,94526.56
2019-01-30T02:38:19.486Z,94517.52
2019-01-30T02:40:51.343Z,94518.23
2019-01-30T02:43:23.097Z,94523.25
2019-01-30T02:45:54.853Z,94512.60
2019-01-30T02:48:26.679Z,94510.37
2019-01-30T02:50:58.496Z,94509.00
2019-01-30T02:53:30.408Z,94499.98
2019-01-30T02:56:02.153Z,94496.11
2019-01-30T02:58:33.897Z,94495.12
2019-01-30T03:01:05.728Z,94497.56
2019-01-30T03:03:37.643Z,94495.86
2019-01-30T03:06:09.654Z,94500.53
2019-01-30T03:08:41.580Z,94494.78
2019-01-30T03:11:13.648Z,94491.32
2019-01-30T03:13:45.552Z,94492.96
2019-01-30T03:16:17.570Z,94471.22
2019-01-30T03:18:49.337Z,94479.92
2019-01-30T03:21:21.231Z,94477.35
2019-01-30T03:23:53.006Z,94473.75
2019-01-30T03:26:24.831Z,94474.64
2019-01-30T03:28:56.600Z,94467.99
2019-01-30T03:31:28.457Z,94460.05
2019-01-30T03:34:00.507Z,94467.00
2019-01-30T03:36:32.658Z,94459.37
2019-01-30T03:39:07.340Z,94461.84
2019-01-30T03:41:40.238Z,94460.66
2019-01-30T03:44:12.083Z,94455.80
2019-01-30T03:46:44.024Z,94456.92
2019-01-30T03:49:15.949Z,94449.84
2019-01-30T03:51:47.837Z,94452.80
2019-01-30T03:54:19.675Z,94445.28
2019-01-30T03:56:51.609Z,94451.04
2019-01-30T03:59:23.531Z,94457.27
2019-01-30T04:01:55.717Z,94455.93
2019-01-30T04:04:27.901Z,94454.64
2019-01-30T04:06:59.825Z,94442.70
2019-01-30T04:09:31.790Z,94451.86
2019-01-30T04:12:03.610Z,94450.99
2019-01-30T04:14:35.531Z,94456.66
2019-01-30T04:17:07.639Z,94451.13
2019-01-30T04:19:39.417Z,94457.09
2019-01-30T04:22:11.341Z,94460.01
2019-01-30T04:24:43.184Z,94463.45
2019-01-30T04:27:15.199Z,94458.16
2019-01-30T04:29:47.049Z,94457.61
2019-01-30T04:32:18.977Z,94447.81
2019-01-30T04:34:50.755Z,94450.22
2019-01-30T04:37:22.683Z,94437.39
2019-01-30T04:39:54.603Z,94442.55
2019-01-30T04:42:26.448Z,94445.76
2019-01-30T04:44:58.298Z,94436.87
2019-01-30T04:47:30.066Z,94434.56
2019-01-30T04:50:02.440Z,94431.98
2019-01-30T04:52:34.295Z,94425.23
2019-01-30T04:55:06.958Z,94424.81
2019-01-30T04:57:38.879Z,94419.77
2019-01-30T05:00:13.414Z,94417.46
2019-01-30T05:02:45.346Z,94419.77
2019-01-30T05:05:19.034Z,94413.26
2019-01-30T05:07:50.992Z,94412.99
2019-01-30T05:10:23.108Z,94412.31
2019-01-30T05:12:55.043Z,94417.84
2019-01-30T05:15:26.944Z,94411.02
2019-01-30T05:17:59.151Z,94407.28
2019-01-30T05:20:31.139Z,94402.69
2019-01-30T05:23:03.310Z,94400.16
2019-01-30T05:25:35.164Z,94404.72
2019-01-30T05:28:07.090Z,94405.05
2019-01-30T05:30:39.095Z,94405.53
2019-01-30T05:33:10.993Z,94400.94
2019-01-30T05:35:42.970Z,94403.17
2019-01-30T05:38:14.820Z,94404.06
2019-01-30T05:40:46.801Z,94403.34
2019-01-30T05:43:18.658Z,94398.48
2019-01-30T05:45:50.593Z,94401.40
2019-01-30T05:48:22.527Z,94398.48
2019-01-30T05:50:54.443Z,94398.83
2019-01-30T05:53:26.381Z,94407.75
2019-01-30T05:55:58.310Z,94407.20
2019-01-30T05:58:30.404Z,94400.50
2019-01-30T06:01:02.397Z,94397.88
2019-01-30T06:03:34.330Z,94403.63
2019-01-30T06:06:06.498Z,94418.80
2019-01-30T06:08:38.702Z,94417.03
2019-01-30T06:11:12.205Z,94420.34
2019-01-30T06:13:44.075Z,94418.62
2019-01-30T06:16:16.249Z,94420.20
2019-01-30T06:18:48.286Z,94407.62
2019-01-30T06:21:20.207Z,94413.17
2019-01-30T06:23:52.282Z,94426.52
2019-01-30T06:26:24.212Z,94427.50
2019-01-30T06:28:56.467Z,94424.14
2019-01-30T06:31:29.427Z,94420.27
2019-01-30T06:34:01.404Z,94429.56
2019-01-30T06:36:33.326Z,94434.49
2019-01-30T06:39:07.652Z,94417.52
2019-01-30T06:41:39.580Z,94426.20
2019-01-30T06:44:11.939Z,94424.14
2019-01-30T06:46:43.873Z,94406.41
2019-01-30T06:49:15.819Z,94418.37
2019-01-30T06:51:47.988Z,94414.94
2019-01-30T06:54:20.061Z,94413.04
2019-01-30T06:56:52.061Z,94414.33
2019-01-30T06:59:23.939Z,94415.89
2019-01-30T07:01:56.004Z,94409.33
2019-01-30T07:04:28.271Z,94400.88
2019-01-30T07:07:00.483Z,94404.27
2019-01-30T07:09:32.493Z,94404.13
2019-01-30T07:12:04.666Z,94399.85
2019-01-30T07:14:36.701Z,94401.82
2019-01-30T07:17:08.858Z,94400.44
2019-01-30T07:19:40.787Z,94404.48
2019-01-30T07:22:13.168Z,94402.16
2019-01-30T07:24:45.696Z,94399.52
2019-01-30T07:27:17.684Z,94407.31
2019-01-30T07:29:49.797Z,94397.48
2019-01-30T07:32:21.987Z,94396.36
2019-01-30T07:34:53.953Z,94402.80
2019-01-30T07:37:25.875Z,94401.18
2019-01-30T07:39:57.808Z,94420.32
2019-01-30T07:42:29.725Z,94421.27
2019-01-30T07:45:01.653Z,94414.56
2019-01-30T07:47:33.637Z,94395.38
2019-01-30T07:50:06.905Z,94393.69
2019-01-30T07:52:38.928Z,94399.01
2019-01-30T07:55:13.762Z,94404.38
2019-01-30T07:57:45.899Z,94395.34
2019-01-30T08:00:24.663Z,94386.02
2019-01-30T08:02:56.657Z,94369.73
2019-01-30T08:05:28.919Z,94383.10
2019-01-30T08:08:00.769Z,94392.40
2019-01-30T08:10:32.694Z,94396.91
2019-01-30T08:13:04.792Z,94415.20
2019-01-30T08:15:36.791Z,94414.39
2019-01-30T08:18:08.785Z,94431.76
2019-01-30T08:20:40.701Z,94454.02
2019-01-30T08:23:12.676Z,94458.45
2019-01-30T08:25:44.471Z,94449.14
2019-01-30T08:28:16.614Z,94448.52
2019-01-30T08:30:48.934Z,94455.41
2019-01-30T08:33:21.642Z,94468.01
2019-01-30T08:35:53.693Z,94470.91
2019-01-30T08:38:25.886Z,94466.85
2019-01-30T08:40:57.814Z,94482.53
2019-01-30T08:43:29.736Z,94483.67
2019-01-30T08:46:01.845Z,94473.53
2019-01-30T08:48:34.019Z,94465.63
2019-01-30T08:51:06.248Z,94467.40
2019-01-30T08:53:40.388Z,94457.97
2019-01-30T08:56:11.822Z,94464.52
2019-01-30T08:58:43.641Z,94460.85
2019-01-30T09:01:16.838Z,94464.92
2019-01-30T09:03:49.007Z,94473.31
2019-01-30T09:06:20.932Z,94465.94
2019-01-30T09:08:52.710Z,94468.63
2019-01-30T09:11:24.708Z,94463.56
2019-01-30T09:13:56.551Z,94465.46
2019-01-30T09:16:28.403Z,94455.91
2019-01-30T09:19:01.292Z,94452.66
2019-01-30T09:21:33.205Z,94456.55
2019-01-30T09:24:05.211Z,94451.11
2019-01-30T09:26:37.139Z,94450.73
2019-01-30T09:29:10.234Z,94450.98
2019-01-30T09:31:42.136Z,94461.92
2019-01-30T09:34:14.004Z,94467.66
2019-01-30T09:36:45.738Z,94448.84
2019-01-30T09:39:17.644Z,94471.99
2019-01-30T09:41:49.504Z,94477.02
2019-01-30T09:44:21.327Z,94465.16
2019-01-30T09:46:53.248Z,94474.93
2019-01-30T09:49:25.166Z,94472.05
2019-01-30T09:51:57.089Z,94469.88
2019-01-30T09:54:29.279Z,94470.97
2019-01-30T09:57:01.185Z,94481.20
2019-01-30T09:59:33.070Z,94479.64
2019-01-30T10:02:05.069Z,94486.03
2019-01-30T10:04:36.900Z,94483.65
2019-01-30T10:07:10.002Z,94486.81
2019-01-30T10:09:41.941Z,94481.50
2019-01-30T10:12:13.786Z,94486.50
2019-01-30T10:14:45.633Z,94489.79
2019-01-30T10:17:17.486Z,94498.86
2019-01-30T10:19:49.450Z,94494.83
2019-01-30T10:22:21.367Z,94504.23
2019-01-30T10:24:53.202Z,94494.11
2019-01-30T10:27:25.039Z,94508.98
2019-01-30T10:29:58.757Z,94499.48
2019-01-30T10:32:30.385Z,94497.07
2019-01-30T10:35:02.133Z,94485.38
2019-01-30T10:37:33.969Z,94497.07
2019-01-30T10:40:08.098Z,94495.30
2019-01-30T10:42:39.999Z,94490.30
2019-01-30T10:45:12.041Z,94493.89
2019-01-30T10:47:44.022Z,94490.84
2019-01-30T10:50:19.357Z,94486.48
2019-01-30T10:52:51.318Z,94483.75
2019-01-30T10:55:25.824Z,94483.58
2019-01-30T10:58:00.155Z,94482.73
2019-01-30T11:00:36.375Z,94488.09
2019-01-30T11:03:08.382Z,94488.45
2019-01-30T11:05:40.364Z,94481.45
2019-01-30T11:08:12.389Z,94474.33
2019-01-30T11:10:44.364Z,94483.55
2019-01-30T11:13:16.393Z,94474.50
2019-01-30T11:15:48.218Z,94477.11
2019-01-30T11:18:20.495Z,94476.77
2019-01-30T11:20:52.465Z,94473.54
2019-01-30T11:23:24.453Z,94470.32
2019-01-30T11:25:57.050Z,94459.94
2019-01-30T11:28:29.273Z,94461.90
2019-01-30T11:31:01.124Z,94465.12
2019-01-30T11:33:33.032Z,94460.28
2019-01-30T11:36:04.957Z,94458.33
2019-01-30T11:38:36.871Z,94454.12
2019-01-30T11:41:10.042Z,94463.18
2019-01-30T11:43:41.958Z,94454.41
2019-01-30T11:46:13.866Z,94457.66
2019-01-30T11:48:56.016Z,94455.39
2019-01-30T11:51:19.311Z,94455.86
2019-01-30T11:53:51.319Z,94460.39
2019-01-30T11:56:23.147Z,94458.92
2019-01-30T11:58:55.246Z,94464.23
2019-01-30T12:01:27.154Z,94459.52
2019-01-30T12:03:58.985Z,94462.11
2019-01-30T12:06:30.809Z,94457.27
2019-01-30T12:09:02.988Z,94467.34
2019-01-30T12:11:34.871Z,94468.63
2019-01-30T12:14:06.779Z,94464.02
2019-01-30T12:16:38.677Z,94459.47
2019-01-30T12:19:10.520Z,94451.16
2019-01-30T12:21:42.492Z,94459.74
2019-01-30T12:24:14.407Z,94461.36
2019-01-30T12:26:46.229Z,94454.19
2019-01-30T12:29:18.210Z,94452.05
2019-01-30T12:31:50.114Z,94461.66
2019-01-30T12:34:28.175Z,94457.73
2019-01-30T12:36:55.555Z,94458.71
2019-01-30T12:39:27.568Z,94460.36
2019-01-30T12:41:59.500Z,94461.23
2019-01-30T12:44:33.490Z,94470.17
2019-01-30T12:47:05.094Z,94462.56
2019-01-30T12:49:36.999Z,94466.02
2019-01-30T12:52:08.899Z,94469.27
2019-01-30T12:54:40.669Z,94469.26
2019-01-30T12:57:12.565Z,94476.72
2019-01-30T12:59:44.492Z,94464.58
2019-01-30T13:02:16.397Z,94464.75
2019-01-30T13:04:48.303Z,94470.92
2019-01-30T13:07:20.059Z,94475.13
2019-01-30T13:09:51.998Z,94473.53
2019-01-30T13:12:23.906Z,94471.58
2019-01-30T13:14:55.741Z,94484.54
2019-01-30T13:17:27.647Z,94485.22
2019-01-30T13:19:59.557Z,94500.61
2019-01-30T13:22:31.509Z,94490.58
2019-01-30T13:25:03.540Z,94495.77
2019-01-30T13:27:35.439Z,94502.39
2019-01-30T13:30:15.653Z,94501.11
2019-01-30T13:32:48.927Z,94493.16
2019-01-30T13:35:20.949Z,94495.25
2019-01-30T13:37:52.752Z,94497.52
2019-01-30T13:40:31.041Z,94504.34
2019-01-30T13:43:03.117Z,94500.44
2019-01-30T13:45:35.135Z,94511.78
2019-01-30T13:48:19.597Z,94510.19
2019-01-30T13:50:51.514Z,94514.08
2019-01-30T13:53:23.405Z,94523.81
2019-01-30T13:55:55.321Z,94526.42
2019-01-30T13:58:27.304Z,94515.85
2019-01-30T14:01:00.170Z,94529.02
2019-01-30T14:03:32.708Z,94533.55
2019-01-30T14:06:04.661Z,94532.58
2019-01-30T14:08:36.567Z,94529.34
2019-01-30T14:11:08.481Z,94530.94
2019-01-30T14:13:40.645Z,94530.30
2019-01-30T14:16:12.676Z,94534.53
2019-01-30T14:18:44.541Z,94537.11
2019-01-30T14:21:16.367Z,94547.48
2019-01-30T14:23:48.321Z,94550.07
2019-01-30T14:26:20.115Z,94551.04
2019-01-30T14:28:52.017Z,94557.39
2019-01-30T14:31:23.957Z,94563.38
2019-01-30T14:33:55.956Z,94561.25
2019-01-30T14:36:28.026Z,94563.53
2019-01-30T14:38:59.919Z,94569.22
2019-01-30T14:41:31.881Z,94579.59
2019-01-30T14:44:04.010Z,94581.71
2019-01-30T14:46:35.929Z,94580.90
2019-01-30T14:49:07.748Z,94578.30
2019-01-30T14:51:39.586Z,94585.09
2019-01-30T14:54:11.654Z,94588.34
2019-01-30T14:56:43.570Z,94586.70
2019-01-30T14:59:15.429Z,94584.78
2019-01-30T15:01:47.991Z,94592.89
2019-01-30T15:04:19.876Z,94586.84
2019-01-30T15:06:51.684Z,94595.48
2019-01-30T15:09:23.562Z,94595.95
2019-01-30T15:11:55.517Z,94608.41
2019-01-30T15:14:27.461Z,94596.09
2019-01-30T15:16:59.405Z,94596.11
2019-01-30T15:19:33.450Z,94600.32
2019-01-30T15:22:05.702Z,94606.81
2019-01-30T15:24:37.551Z,94600.28
2019-01-30T15:27:09.867Z,94604.83
2019-01-30T15:29:41.940Z,94605.52
2019-01-30T15:32:14.144Z,94615.55
2019-01-30T15:34:46.150Z,94617.83
2019-01-30T15:37:18.165Z,94624.28
2019-01-30T15:39:50.170Z,94636.21
2019-01-30T15:42:22.162Z,94642.84
2019-01-30T15:44:54.564Z,94643.13
2019-01-30T15:47:26.567Z,94656.56
2019-01-30T15:49:58.578Z,94654.94
2019-01-30T15:52:30.672Z,94665.92
2019-01-30T15:55:02.611Z,94658.15
2019-01-30T15:57:34.713Z,94671.10
2019-01-30T16:00:16.229Z,94664.56
2019-01-30T16:02:52.004Z,94670.28
2019-01-30T16:05:25.005Z,94669.47
2019-01-30T16:07:57.682Z,94674.19
2019-01-30T16:10:29.825Z,94680.06
2019-01-30T16:13:01.832Z,94680.26
2019-01-30T16:15:50.774Z,94690.82
2019-01-30T16:18:22.837Z,94691.92
2019-01-30T16:20:55.039Z,94685.25
2019-01-30T16:23:27.641Z,94694.45
2019-01-30T16:26:00.802Z,94690.77
2019-01-30T16:28:32.978Z,94696.91
2019-01-30T16:31:05.394Z,94691.73
2019-01-30T16:33:39.227Z,94714.00
2019-01-30T16:36:11.530Z,94698.12
2019-01-30T16:38:43.663Z,94715.03
2019-01-30T16:41:17.242Z,94728.39
2019-01-30T16:43:52.003Z,94717.22
2019-01-30T16:46:24.586Z,94724.64
2019-01-30T16:48:58.051Z,94729.19
2019-01-30T16:51:30.534Z,94735.45
2019-01-30T16:54:02.755Z,94731.82
2019-01-30T16:56:35.258Z,94738.81
2019-01-30T16:59:08.400Z,94746.30
2019-01-30T17:01:43.617Z,94749.12
2019-01-30T17:04:17.180Z,94760.52
2019-01-30T17:06:49.494Z,94757.28
2019-01-30T17:09:22.103Z,94757.18
2019-01-30T17:11:54.333Z,94762.62
2019-01-30T17:14:27.289Z,94772.81
2019-01-30T17:17:00.166Z,94770.80
2019-01-30T17:19:33.920Z,94781.67
2019-01-30T17:22:08.306Z,94790.14
2019-01-30T17:24:41.426Z,94783.33
2019-01-30T17:27:14.475Z,94785.30
2019-01-30T17:29:48.810Z,94784.59
2019-01-30T17:32:21.425Z,94785.69
2019-01-30T17:34:55.026Z,94791.80
2019-01-30T17:37:29.234Z,94793.69
2019-01-30T17:40:02.956Z,94799.56
2019-01-30T17:42:35.027Z,94800.83
2019-01-30T17:45:08.216Z,94803.76
2019-01-30T17:47:42.190Z,94800.04
2019-01-30T17:50:19.912Z,94807.58
2019-01-30T17:52:53.540Z,94811.07
2019-01-30T17:55:27.109Z,94814.28
2019-01-30T17:58:01.201Z,94810.37
2019-01-30T18:01:03.351Z,94815.57
2019-01-30T18:03:39.571Z,94818.73
2019-01-30T18:06:13.868Z,94826.27
2019-01-30T18:08:48.249Z,94831.44
2019-01-30T18:11:22.824Z,94827.71
2019-01-30T18:13:56.178Z,94834.77
2019-01-30T18:16:32.535Z,94834.18
2019-01-30T18:19:07.395Z,94834.25
2019-01-30T18:21:44.080Z,94848.34
2019-01-30T18:24:19.802Z,94845.28
2019-01-30T18:26:55.052Z,94837.48
2019-01-30T18:29:31.002Z,94849.54
2019-01-30T18:32:07.055Z,94863.91
2019-01-30T18:34:43.289Z,94858.05
2019-01-30T18:37:19.037Z,94870.38
2019-01-30T18:39:55.076Z,94884.36
2019-01-30T18:42:31.239Z,94877.44
2019-01-30T18:45:09.587Z,94881.39
2019-01-30T18:47:45.362Z,94891.55
2019-01-30T18:50:24.444Z,94891.82
2019-01-30T18:53:00.540Z,94891.20
2019-01-30T18:55:36.496Z,94892.89
2019-01-30T18:58:12.424Z,94889.56
2019-01-30T19:00:48.893Z,94890.78
2019-01-30T19:03:24.860Z,94903.48
2019-01-30T19:06:01.698Z,94898.94
2019-01-30T19:08:38.382Z,94906.25
2019-01-30T19:11:16.844Z,94914.95
2019-01-30T19:13:52.970Z,94910.70
2019-01-30T19:16:29.470Z,94918.81
2019-01-30T19:19:05.915Z,94917.41
2019-01-30T19:21:41.526Z,94915.39
2019-01-30T19:24:19.667Z,94921.36
2019-01-30T19:26:53.931Z,94917.25
2019-01-30T19:29:29.494Z,94923.67
2019-01-30T19:32:06.385Z,94928.28
2019-01-30T19:34:42.392Z,94927.60
2019-01-30T19:37:19.035Z,94928.94
2019-01-30T19:39:57.073Z,94933.27
2019-01-30T19:42:33.461Z,94941.39
2019-01-30T19:45:12.467Z,94945.97
2019-01-30T19:47:48.771Z,94946.95
2019-01-30T19:50:33.085Z,94951.66
2019-01-30T19:53:10.382Z,94956.92
2019-01-30T19:55:46.288Z,94959.77
2019-01-30T19:58:23.784Z,94953.30
2019-01-30T20:01:01.249Z,94948.95
2019-01-30T20:03:39.264Z,94963.20
2019-01-30T20:06:17.766Z,94953.78
2019-01-30T20:08:55.260Z,94958.52
2019-01-30T20:11:32.541Z,94966.52
2019-01-30T20:14:11.450Z,94960.11
2019-01-30T20:16:47.859Z,94963.30
2019-01-30T20:19:25.171Z,94958.69
2019-01-30T20:22:03.019Z,94952.00
2019-01-30T20:24:41.034Z,94950.84
2019-01-30T20:27:17.852Z,94955.55
2019-01-30T20:29:54.360Z,94955.71
2019-01-30T20:32:31.828Z,94953.82
2019-01-30T20:35:10.452Z,94965.02
2019-01-30T20:37:48.092Z,94968.72
2019-01-30T20:40:27.286Z,94971.88
2019-01-30T20:43:03.538Z,94968.13
2019-01-30T20:45:40.982Z,94971.75
2019-01-30T20:48:17.487Z,94973.30
2019-01-30T20:50:52.898Z,94976.57
2019-01-30T20:53:28.919Z,94978.30
2019-01-30T20:56:04.762Z,94979.32
2019-01-30T20:58:41.131Z,94983.03
2019-01-30T21:01:17.217Z,94978.42
2019-01-30T21:03:54.145Z,94988.29
2019-01-30T21:06:29.245Z,94982.86
2019-01-30T21:09:06.565Z,94986.66
2019-01-30T21:11:41.675Z,94988.23
2019-01-30T21:14:16.660Z,94992.52
2019-01-30T21:16:52.180Z,94989.23
2019-01-30T21:19:28.203Z,94990.42
2019-01-30T21:22:04.992Z,94990.98
2019-01-30T21:24:39.896Z,94994.28
2019-01-30T21:27:14.832Z,94993.37
2019-01-30T21:29:49.271Z,95001.72
2019-01-30T21:32:23.817Z,94997.68
2019-01-30T21:34:57.989Z,95000.60
2019-01-30T21:37:32.703Z,94996.34
2019-01-30T21:40:09.632Z,94994.23
2019-01-30T21:42:43.859Z,94993.87
2019-01-30T21:45:21.300Z,94996.62
2019-01-30T21:47:54.760Z,94996.95
2019-01-30T21:50:27.878Z,95001.16
2019-01-30T21:53:01.075Z,94995.64
2019-01-30T21:55:34.140Z,94996.75
2019-01-30T21:58:08.051Z,94994.52
2019-01-30T22:00:41.255Z,94999.27
2019-01-30T22:03:14.790Z,95000.63
2019-01-30T22:05:47.499Z,94992.73
2019-01-30T22:08:20.622Z,94991.45
2019-01-30T22:10:53.958Z,94990.55
2019-01-30T22:13:26.619Z,94988.09
2019-01-30T22:16:00.047Z,94992.11
2019-01-30T22:18:32.590Z,94987.89
2019-01-30T22:21:04.780Z,94987.50
2019-01-30T22:23:37.041Z,94984.15
2019-01-30T22:26:09.259Z,94980.75
2019-01-30T22:28:41.404Z,94988.49
2019-01-30T22:31:13.417Z,94993.41
2019-01-30T22:33:45.964Z,94992.34
2019-01-30T22:36:17.960Z,94989.56
2019-01-30T22:38:49.924Z,94993.50
2019-01-30T22:41:22.347Z,94997.59
2019-01-30T22:43:54.660Z,94996.33
2019-01-30T22:46:26.973Z,95000.30
2019-01-30T22:48:59.169Z,94994.94
2019-01-30T22:51:31.219Z,94991.92
2019-01-30T22:54:03.307Z,94992.42
2019-01-30T22:56:35.390Z,94993.87
2019-01-30T22:59:07.470Z,94993.87
2019-01-30T23:01:51.108Z,94984.56
2019-01-30T23:04:57.466Z,94990.30
2019-01-30T23:08:00.849Z,94988.64
2019-01-30T23:11:48.118Z,94988.36
2019-01-30T23:14:31.301Z,94993.05
2019-01-30T23:18:25.967Z,94991.15
2019-01-30T23:21:06.218Z,94992.16
2019-01-30T23:24:20.922Z,94995.41
2019-01-30T23:27:51.725Z,95001.55
2019-01-30T23:31:11.646Z,94993.07
2019-01-30T23:34:48.473Z,94988.66
2019-01-30T23:38:09.943Z,94990.83
2019-01-30T23:41:11.700Z,94988.76
2019-01-30T23:44:34.632Z,94989.58
2019-01-30T23:48:08.666Z,94980.16
2019-01-30T23:51:41.050Z,94982.52
2019-01-30T23:55:12.648Z,94983.13
2019-01-30T23:58:24.628Z,94977.33
